Pudong, Shanghai

9:35 AM CST on August 02, 2015 (GMT +0800)
Jincai02 | | Change Station
CLOSE
Current Station
Personal Weather Station
Location: 中国,
Elevation: 13 ft
Nearby Weather Stations

Elev 13 ft 31.14 °N, 121.73 °E | Updated 9 seconds ago

Clear
Clear
87.6 °F
Feels Like 113 °F
N
0.0
Wind Variable Wind from East
Gusts 0.0 mph

Today
High -- | Low -- °F
--% Chance of Precip.
Yesterday
High -- | Low -- °F
Precip. -- in
5:09 AM 6:48 PM
Waning Gibbous, 96% visible
Pressure 29.83 in
Visibility -9999.0 miles
Clouds
Heat Index 113 °F
Dew Point 85 °F
Humidity 92%
Rainfall 0.05 in
Snow Depth Not available.
UV 0.0 out of 12
Pollen Not available.
Air Quality Not available.
Flu Activity Not available.
METAR ZSPD 020130Z 20004MPS 170V230 CAVOK 33/26 Q1010 NOSIG

More Conditions Fewer Conditions

Pressure 29.83 in
Visibility -9999.0 miles
Clouds
Heat Index 113 °F
Dew Point 85 °F
Humidity 92%
Rainfall 0.05 in
Snow Depth Not available.
UV 0.0 out of 12
Pollen Not available.
Air Quality Not available.
Flu Activity Not available.
METAR ZSPD 020130Z 20004MPS 170V230 CAVOK 33/26 Q1010 NOSIG

More Conditions Fewer Conditions

10-Day Weather Forecast

×

Almanac

Astronomy

Aug. 02, 2015 Rise Set
Actual Time
Civil Twilight
Nautical Twilight
Astronomical Twilight
Moon
Length of Visible Light
Length of Day
Tomorrow will be .
, % of the Moon is Illuminated

Today's Extremes

Country Highs Country Lows

Community

WunderPhotos

Upload Photos

1,843,127 photos uploaded!

WunderBlogs® & News

Nearby

Air Quality

  Air Quality AQ Index Pollutant
Not available.

Snow Depth

Station Depth Elevation

Earthquake Activity

City Distance Mag. Time & Date
Minimum magnitude displayed is 2.5.

Coastal Water Temperatures

Place Temperature

Stations

Nearby Weather Stations

Station Location Temp. Windchill Dew Point Humidity Wind Precip. Elev Updated Type